Time;durP1;ratioP1;P1;durP2;ratioP2;P2;SDS_P1;SDS_P2;PMS_P1;PMS_P2;Temp;Humidity;BMP_temperature;BMP_pressure;BME280_temperature;BME280_humidity;BME280_pressure;Samples;Min_cycle;Max_cycle;Signal;HPM_P1;HPM_P2
2023/07/29 00:00:49;;;;;;;2.47;2.27;;;22.70;95.80;;;;;;5057628;28;20398;-87
2023/07/29 00:03:15;;;;;;;2.67;2.47;;;22.70;95.80;;;;;;5068727;28;20423;-87
2023/07/29 00:05:44;;;;;;;2.90;2.70;;;22.70;95.80;;;;;;5023622;28;20431;-87
2023/07/29 00:08:14;;;;;;;2.53;2.33;;;22.70;95.80;;;;;;5056972;28;20449;-88
2023/07/29 00:10:45;;;;;;;2.60;2.37;;;22.70;95.80;;;;;;5046550;28;20429;-87
2023/07/29 00:13:13;;;;;;;2.70;2.50;;;22.60;95.70;;;;;;5023817;28;20441;-88
2023/07/29 00:15:39;;;;;;;3.00;2.43;;;22.60;95.70;;;;;;5024195;28;20436;-87
2023/07/29 00:18:05;;;;;;;2.43;2.23;;;22.60;95.70;;;;;;5007408;28;20474;-88
2023/07/29 00:20:33;;;;;;;2.60;2.40;;;22.60;95.70;;;;;;5024385;28;20478;-87
2023/07/29 00:23:02;;;;;;;2.23;2.10;;;22.60;95.60;;;;;;5022808;28;20881;-87
2023/07/29 00:25:28;;;;;;;2.60;2.40;;;22.60;95.60;;;;;;5057150;28;21019;-88
2023/07/29 00:27:59;;;;;;;2.67;2.47;;;22.60;95.60;;;;;;5023897;28;20509;-87
2023/07/29 00:30:25;;;;;;;2.20;2.10;;;22.60;95.60;;;;;;5039943;28;20226;-87
2023/07/29 00:32:50;;;;;;;2.60;2.40;;;22.60;95.60;;;;;;5040058;28;20434;-87
2023/07/29 00:35:16;;;;;;;2.37;2.27;;;22.60;95.60;;;;;;5023480;28;20838;-87
2023/07/29 00:37:45;;;;;;;2.40;2.20;;;22.60;95.60;;;;;;5056991;28;20208;-87
2023/07/29 00:40:16;;;;;;;2.33;2.23;;;22.60;95.60;;;;;;5007598;28;20814;-87
2023/07/29 00:42:42;;;;;;;2.40;2.30;;;22.60;95.60;;;;;;5039546;28;20443;-87
2023/07/29 00:45:11;;;;;;;2.93;2.60;;;22.60;95.60;;;;;;5024121;28;20801;-87
2023/07/29 00:47:38;;;;;;;2.40;2.20;;;22.60;95.60;;;;;;5023292;28;20446;-88
2023/07/29 00:50:09;;;;;;;2.57;2.37;;;22.60;95.60;;;;;;5019585;28;20201;-87
2023/07/29 00:52:35;;;;;;;2.27;2.17;;;22.60;95.60;;;;;;5003426;28;20527;-87
2023/07/29 00:55:01;;;;;;;2.63;2.40;;;22.60;95.60;;;;;;5003428;28;20538;-86
2023/07/29 00:57:31;;;;;;;2.70;2.50;;;22.50;95.50;;;;;;5003228;28;20435;-87
2023/07/29 00:59:57;;;;;;;2.40;2.30;;;22.50;95.50;;;;;;5018949;28;20444;-87
2023/07/29 01:02:29;;;;;;;2.47;2.23;;;22.50;95.50;;;;;;5003358;28;20442;-87
2023/07/29 01:04:57;;;;;;;2.67;2.03;;;22.50;95.50;;;;;;5003379;28;20426;-87
2023/07/29 01:07:25;;;;;;;2.50;2.30;;;22.50;95.50;;;;;;5019623;28;20712;-87
2023/07/29 01:10:09;;;;;;;2.70;2.50;;;22.50;95.50;;;;;;5003100;28;20633;-87
2023/07/29 01:12:53;;;;;;;3.10;2.90;;;22.50;95.50;;;;;;5002836;28;20457;-87
2023/07/29 01:15:32;;;;;;;2.70;2.50;;;22.50;95.50;;;;;;5003181;28;20420;-87
2023/07/29 01:18:06;;;;;;;2.50;2.30;;;22.50;95.50;;;;;;5036392;28;20516;-87
2023/07/29 01:20:40;;;;;;;3.70;2.53;;;22.50;95.50;;;;;;5003167;28;20522;-87
2023/07/29 01:23:09;;;;;;;2.33;2.10;;;22.50;95.50;;;;;;5019399;28;20824;-87
2023/07/29 01:25:35;;;;;;;2.47;2.30;;;22.50;95.50;;;;;;4986444;28;20443;-87
2023/07/29 01:28:06;;;;;;;2.60;2.40;;;22.50;95.50;;;;;;5002904;28;20871;-86
2023/07/29 01:30:38;;;;;;;2.20;2.00;;;22.50;95.50;;;;;;5001708;28;20439;-86
2023/07/29 01:33:18;;;;;;;3.73;2.53;;;22.50;95.50;;;;;;5002909;28;20426;-87
2023/07/29 01:35:44;;;;;;;2.17;2.07;;;22.50;95.50;;;;;;5002554;28;20447;-87
2023/07/29 01:38:18;;;;;;;2.20;2.10;;;22.40;95.40;;;;;;5019855;28;20485;-88
2023/07/29 01:40:45;;;;;;;2.63;2.43;;;22.40;95.40;;;;;;5025163;28;20457;-87
2023/07/29 01:43:12;;;;;;;2.53;2.33;;;22.40;95.40;;;;;;4986673;28;20434;-87
2023/07/29 01:45:41;;;;;;;2.30;2.20;;;22.40;95.40;;;;;;5018645;28;20733;-86
2023/07/29 01:48:10;;;;;;;2.47;2.17;;;22.40;95.40;;;;;;4986496;28;20431;-87
2023/07/29 01:50:38;;;;;;;2.57;2.37;;;22.40;95.40;;;;;;5018515;28;20867;-87
2023/07/29 01:53:04;;;;;;;2.20;2.10;;;22.40;95.40;;;;;;5018409;28;20531;-87
2023/07/29 01:55:30;;;;;;;2.40;2.30;;;22.40;95.40;;;;;;5002095;28;20595;-87
2023/07/29 01:57:56;;;;;;;2.37;2.27;;;22.40;95.40;;;;;;4986167;28;20227;-87
2023/07/29 02:00:25;;;;;;;2.60;2.40;;;22.40;95.40;;;;;;4986175;28;20439;-87
2023/07/29 02:02:53;;;;;;;2.70;2.50;;;22.40;95.40;;;;;;4993763;28;20418;-87
2023/07/29 02:05:19;;;;;;;2.60;2.40;;;22.40;95.40;;;;;;5038207;28;20828;-87
2023/07/29 02:07:47;;;;;;;2.33;2.20;;;22.40;95.40;;;;;;5054962;28;20517;-87
2023/07/29 02:10:15;;;;;;;2.83;2.60;;;22.40;95.30;;;;;;5028817;28;20547;-87
2023/07/29 02:12:41;;;;;;;2.67;2.30;;;22.40;95.40;;;;;;5001674;28;20424;-87
2023/07/29 02:15:10;;;;;;;2.50;2.40;;;22.40;95.40;;;;;;5001707;28;20521;-87
2023/07/29 02:17:42;;;;;;;2.17;2.07;;;22.40;95.40;;;;;;4985896;28;20430;-87
2023/07/29 02:20:11;;;;;;;2.20;2.00;;;22.40;95.40;;;;;;5001720;28;20435;-87
2023/07/29 02:22:37;;;;;;;2.50;2.30;;;22.40;95.30;;;;;;5017898;28;20442;-87
2023/07/29 02:25:06;;;;;;;2.50;2.33;;;22.40;95.40;;;;;;4985551;28;20423;-86
2023/07/29 02:27:34;;;;;;;2.30;2.20;;;22.40;95.40;;;;;;5001790;28;20480;-87
2023/07/29 02:30:00;;;;;;;2.10;2.00;;;22.40;95.40;;;;;;5001445;28;20518;-87
2023/07/29 02:32:26;;;;;;;2.53;2.40;;;22.40;95.40;;;;;;5001772;28;20534;-87
2023/07/29 02:34:52;;;;;;;2.43;2.23;;;22.40;95.40;;;;;;5001884;28;20417;-87
2023/07/29 02:37:18;;;;;;;2.83;2.30;;;22.30;95.30;;;;;;5001844;28;20428;-87
2023/07/29 02:39:44;;;;;;;2.93;2.50;;;22.30;95.30;;;;;;5001392;28;20478;-87
2023/07/29 02:42:11;;;;;;;2.70;2.40;;;22.30;95.30;;;;;;5016240;28;20431;-87
2023/07/29 02:44:37;;;;;;;2.40;2.30;;;22.30;95.30;;;;;;5070476;28;20429;-85
2023/07/29 02:47:03;;;;;;;2.10;2.00;;;22.30;95.30;;;;;;5037380;28;20432;-87
2023/07/29 02:49:29;;;;;;;2.57;2.47;;;22.30;95.30;;;;;;5070151;28;20935;-86
2023/07/29 02:51:55;;;;;;;2.43;2.23;;;22.30;95.30;;;;;;5070363;28;20497;-87
2023/07/29 02:54:25;;;;;;;2.40;2.30;;;22.30;95.30;;;;;;5054309;28;20438;-86
2023/07/29 02:56:54;;;;;;;2.93;2.70;;;22.30;95.40;;;;;;5053701;28;20183;-86
2023/07/29 02:59:20;;;;;;;3.00;2.50;;;22.30;95.30;;;;;;5069745;28;20496;-86
2023/07/29 03:01:46;;;;;;;3.93;2.60;;;22.30;95.30;;;;;;5069898;28;20403;-87
2023/07/29 03:04:14;;;;;;;2.57;2.30;;;22.30;95.30;;;;;;5036512;28;20189;-87
2023/07/29 03:06:40;;;;;;;2.50;2.40;;;22.30;95.30;;;;;;5036858;28;20820;-87
2023/07/29 03:09:06;;;;;;;2.40;2.30;;;22.30;95.30;;;;;;5016501;28;20435;-86
2023/07/29 03:11:32;;;;;;;2.40;2.20;;;22.30;95.30;;;;;;5019787;28;20454;-86
2023/07/29 03:14:00;;;;;;;2.73;2.53;;;22.30;95.30;;;;;;5020164;28;20262;-85
2023/07/29 03:16:31;;;;;;;2.90;2.70;;;22.30;95.30;;;;;;5005348;28;20291;-87
2023/07/29 03:19:00;;;;;;;2.63;2.43;;;22.30;95.30;;;;;;5020367;28;20850;-87
2023/07/29 03:21:26;;;;;;;2.10;2.00;;;22.30;95.40;;;;;;5004348;28;20935;-86
2023/07/29 03:23:52;;;;;;;3.90;3.03;;;22.30;95.40;;;;;;5043122;28;20411;-86
2023/07/29 03:26:20;;;;;;;3.27;2.97;;;22.30;95.40;;;;;;5060713;28;20462;-85
2023/07/29 03:28:46;;;;;;;2.80;2.60;;;22.30;95.40;;;;;;5042903;28;20175;-87
2023/07/29 03:31:12;;;;;;;2.60;2.40;;;22.20;95.40;;;;;;5043179;28;20457;-87
2023/07/29 03:33:38;;;;;;;3.00;2.70;;;22.20;95.40;;;;;;5026681;28;20271;-86
2023/07/29 03:36:04;;;;;;;2.20;2.10;;;22.20;95.40;;;;;;5027938;28;20777;-87
2023/07/29 03:38:32;;;;;;;2.17;2.07;;;22.20;95.40;;;;;;5026958;28;20465;-87
2023/07/29 03:41:02;;;;;;;2.70;2.50;;;22.20;95.50;;;;;;5010380;28;20426;-88
2023/07/29 03:43:32;;;;;;;5.10;2.57;;;22.20;95.50;;;;;;5010088;28;21128;-86
2023/07/29 03:46:00;;;;;;;3.03;2.83;;;22.20;95.50;;;;;;5010379;28;20416;-86
2023/07/29 03:48:26;;;;;;;2.73;2.53;;;22.20;95.50;;;;;;5042918;28;20437;-86
2023/07/29 03:50:52;;;;;;;3.17;2.37;;;22.20;95.50;;;;;;5043061;28;20476;-86
2023/07/29 03:53:23;;;;;;;2.70;2.50;;;22.20;95.50;;;;;;5043332;28;20442;-86
2023/07/29 03:55:50;;;;;;;2.70;2.60;;;22.20;95.50;;;;;;5010402;28;20425;-86
2023/07/29 03:58:19;;;;;;;4.17;2.70;;;22.20;95.60;;;;;;5010336;28;20474;-87
2023/07/29 04:00:46;;;;;;;2.60;2.40;;;22.20;95.60;;;;;;5026497;28;20442;-86
2023/07/29 04:03:11;;;;;;;3.30;3.00;;;22.20;95.70;;;;;;5041773;28;20522;-87
2023/07/29 04:05:42;;;;;;;2.70;2.60;;;22.20;95.70;;;;;;5008874;28;20468;-87
2023/07/29 04:08:10;;;;;;;3.83;2.50;;;22.20;95.70;;;;;;5055813;28;20241;-87
2023/07/29 04:10:39;;;;;;;3.23;3.03;;;22.20;95.70;;;;;;5025698;28;20654;-87
2023/07/29 04:13:07;;;;;;;2.87;2.67;;;22.20;95.70;;;;;;5037359;28;20453;-87
2023/07/29 04:15:33;;;;;;;2.87;2.33;;;22.20;95.70;;;;;;5014056;28;20486;-87
2023/07/29 04:17:59;;;;;;;2.97;2.77;;;22.20;95.70;;;;;;5020119;28;20470;-87
2023/07/29 04:20:27;;;;;;;2.67;2.50;;;22.20;95.70;;;;;;5038850;28;20451;-86
2023/07/29 04:22:56;;;;;;;3.00;2.80;;;22.20;95.70;;;;;;5022268;28;20229;-87
2023/07/29 04:25:22;;;;;;;3.27;3.00;;;22.20;95.70;;;;;;4989347;28;20469;-86
2023/07/29 04:27:50;;;;;;;2.23;2.13;;;22.10;95.60;;;;;;4988716;28;20484;-86
2023/07/29 04:30:16;;;;;;;2.23;2.13;;;22.20;95.70;;;;;;5028636;28;20441;-87
2023/07/29 04:32:42;;;;;;;2.90;2.53;;;22.10;95.60;;;;;;5010055;28;20583;-87
2023/07/29 04:35:11;;;;;;;2.87;2.67;;;22.10;95.70;;;;;;5054588;28;20465;-88
2023/07/29 04:37:39;;;;;;;2.77;2.20;;;22.10;95.70;;;;;;5055199;28;20540;-87
2023/07/29 04:40:07;;;;;;;2.47;2.37;;;22.10;95.70;;;;;;5003703;28;20435;-87
2023/07/29 04:42:33;;;;;;;2.97;2.77;;;22.10;95.70;;;;;;5029148;28;20756;-86
2023/07/29 04:44:59;;;;;;;2.60;2.40;;;22.10;95.70;;;;;;5025457;28;20432;-87
2023/07/29 04:47:25;;;;;;;2.70;2.50;;;22.10;95.70;;;;;;5025575;28;20441;-87
2023/07/29 04:49:51;;;;;;;2.57;2.30;;;22.10;95.70;;;;;;5042067;28;20531;-87
2023/07/29 04:52:19;;;;;;;3.90;2.47;;;22.10;95.70;;;;;;5025754;28;20473;-87
2023/07/29 04:54:47;;;;;;;3.20;2.40;;;22.10;95.80;;;;;;5040472;28;20187;-87
2023/07/29 04:57:15;;;;;;;3.07;2.30;;;22.10;95.80;;;;;;5055018;28;20857;-87
2023/07/29 04:59:43;;;;;;;2.67;2.20;;;22.10;95.80;;;;;;5055088;28;20454;-86
2023/07/29 05:02:09;;;;;;;2.90;2.70;;;22.10;95.80;;;;;;5054944;28;20763;-88
2023/07/29 05:04:37;;;;;;;3.20;2.90;;;22.10;95.80;;;;;;5038493;28;20243;-87
2023/07/29 05:07:03;;;;;;;3.00;2.70;;;22.10;95.80;;;;;;5022143;28;20504;-87
2023/07/29 05:09:29;;;;;;;2.90;2.70;;;22.10;95.80;;;;;;5038174;28;20454;-87
2023/07/29 05:11:55;;;;;;;2.90;2.70;;;22.10;95.80;;;;;;5021203;28;20423;-87
2023/07/29 05:14:26;;;;;;;2.90;2.70;;;22.10;95.90;;;;;;5021759;28;20521;-87
2023/07/29 05:16:52;;;;;;;2.30;2.20;;;22.10;95.90;;;;;;5037944;28;20430;-87
2023/07/29 05:19:18;;;;;;;2.73;2.53;;;22.10;95.80;;;;;;5054457;28;20462;-86
2023/07/29 05:21:46;;;;;;;2.90;2.70;;;22.10;95.80;;;;;;5037961;28;20462;-87
2023/07/29 05:24:14;;;;;;;2.70;2.50;;;22.10;95.80;;;;;;5033505;28;20200;-87
2023/07/29 05:26:40;;;;;;;2.90;2.70;;;22.10;95.80;;;;;;5015673;28;20497;-87
2023/07/29 05:29:06;;;;;;;3.00;2.80;;;22.10;95.80;;;;;;5000672;28;20279;-88
2023/07/29 05:31:34;;;;;;;2.80;2.60;;;22.00;95.70;;;;;;5013582;28;20344;-87
2023/07/29 05:34:00;;;;;;;2.60;2.40;;;22.00;95.70;;;;;;4980836;28;20448;-88
2023/07/29 05:36:27;;;;;;;2.70;2.50;;;22.00;95.70;;;;;;4964837;28;20432;-87
2023/07/29 05:38:53;;;;;;;2.63;2.40;;;22.00;95.80;;;;;;4982177;28;20491;-87
2023/07/29 05:41:19;;;;;;;2.80;2.60;;;22.00;95.80;;;;;;5020955;28;20998;-87
2023/07/29 05:43:45;;;;;;;2.90;2.70;;;22.00;95.80;;;;;;5019721;28;20472;-87
2023/07/29 05:46:11;;;;;;;2.90;2.53;;;22.00;95.80;;;;;;5016507;28;20430;-87
2023/07/29 05:48:37;;;;;;;3.53;2.60;;;22.00;95.80;;;;;;5042387;28;21024;-88
2023/07/29 05:51:05;;;;;;;2.80;2.60;;;22.00;95.80;;;;;;5020552;28;20197;-87
2023/07/29 05:53:31;;;;;;;2.67;2.47;;;22.00;95.80;;;;;;5004637;28;20484;-87
2023/07/29 05:55:59;;;;;;;2.80;2.60;;;22.00;95.80;;;;;;5011787;28;20439;-87
2023/07/29 05:58:27;;;;;;;2.97;2.77;;;22.00;95.80;;;;;;5017208;28;20735;-87
2023/07/29 06:00:56;;;;;;;2.80;2.60;;;22.00;95.80;;;;;;5016864;28;20426;-88
2023/07/29 06:03:24;;;;;;;2.80;2.60;;;22.00;95.70;;;;;;5001224;28;20452;-87
2023/07/29 06:05:53;;;;;;;2.90;2.70;;;22.00;95.70;;;;;;4992640;28;20433;-88
2023/07/29 06:08:21;;;;;;;2.67;2.47;;;22.00;95.70;;;;;;5054439;28;20748;-88
2023/07/29 06:10:49;;;;;;;2.43;2.23;;;22.00;95.80;;;;;;5053301;28;20442;-86
2023/07/29 06:13:15;;;;;;;3.40;2.67;;;22.00;95.80;;;;;;5038814;28;20795;-87
2023/07/29 06:15:41;;;;;;;2.83;2.63;;;22.00;95.90;;;;;;4984293;28;20442;-86
2023/07/29 06:18:07;;;;;;;2.80;2.60;;;22.00;95.80;;;;;;5000331;28;20471;-87
2023/07/29 06:20:33;;;;;;;2.80;2.60;;;22.00;95.90;;;;;;5000238;28;20311;-87
2023/07/29 06:22:59;;;;;;;3.13;2.93;;;22.00;96.20;;;;;;5034239;28;20435;-87
2023/07/29 06:25:28;;;;;;;4.90;2.60;;;22.00;95.90;;;;;;4985872;28;20533;-86
2023/07/29 06:27:58;;;;;;;2.67;2.47;;;22.00;95.90;;;;;;5016560;28;20423;-87
2023/07/29 06:30:26;;;;;;;3.10;2.90;;;22.00;95.90;;;;;;5047173;28;20758;-87
2023/07/29 06:32:52;;;;;;;2.80;2.60;;;22.00;95.90;;;;;;5020060;28;20434;-88
2023/07/29 06:35:18;;;;;;;2.90;2.70;;;22.00;95.80;;;;;;5035900;28;20753;-88
2023/07/29 06:37:44;;;;;;;2.90;2.70;;;22.00;95.90;;;;;;5020011;28;20218;-89
2023/07/29 06:40:10;;;;;;;3.23;2.93;;;22.00;95.90;;;;;;5036479;28;20192;-88
2023/07/29 06:42:40;;;;;;;3.00;2.80;;;22.00;95.80;;;;;;5023724;28;20468;-88
2023/07/29 06:45:10;;;;;;;2.90;2.70;;;22.00;95.90;;;;;;5018683;28;20434;-88
2023/07/29 06:47:35;;;;;;;2.90;2.70;;;22.00;96.00;;;;;;5017523;28;20447;-88
2023/07/29 06:50:07;;;;;;;3.10;2.90;;;21.90;95.90;;;;;;5053749;28;20445;-87
2023/07/29 06:52:36;;;;;;;2.53;2.43;;;22.00;95.90;;;;;;5006462;28;20515;-87
2023/07/29 06:55:05;;;;;;;2.80;2.60;;;21.90;95.90;;;;;;5016863;28;20418;-87
2023/07/29 06:57:33;;;;;;;3.07;2.43;;;22.00;95.90;;;;;;4999161;28;20765;-87
2023/07/29 07:00:03;;;;;;;3.13;2.57;;;22.00;96.00;;;;;;4999612;28;20941;-89
2023/07/29 07:02:35;;;;;;;2.70;2.60;;;22.00;95.90;;;;;;5028838;28;20465;-87
2023/07/29 07:05:01;;;;;;;2.93;2.70;;;21.90;95.80;;;;;;5068781;28;20757;-88
2023/07/29 07:07:30;;;;;;;4.30;2.57;;;22.00;95.90;;;;;;5053436;28;20430;-89
2023/07/29 07:09:58;;;;;;;2.70;2.50;;;22.00;96.10;;;;;;5053706;28;20399;-89
2023/07/29 07:12:26;;;;;;;3.53;2.40;;;22.00;96.20;;;;;;5023973;28;20434;-89
2023/07/29 07:14:54;;;;;;;3.33;3.13;;;22.00;96.10;;;;;;5016302;28;20585;-87
2023/07/29 07:17:22;;;;;;;2.70;2.50;;;21.90;96.00;;;;;;5015943;28;20542;-87
2023/07/29 07:19:51;;;;;;;2.47;2.27;;;22.00;96.10;;;;;;5016124;28;20211;-87
2023/07/29 07:22:19;;;;;;;3.80;2.73;;;22.00;96.00;;;;;;5015260;28;20506;-88
2023/07/29 07:24:46;;;;;;;4.60;3.07;;;21.90;95.90;;;;;;5035170;28;20888;-88
2023/07/29 07:27:11;;;;;;;2.53;2.33;;;22.00;96.00;;;;;;5035627;28;20203;-89
2023/07/29 07:29:40;;;;;;;2.40;2.20;;;22.00;95.90;;;;;;5035539;28;20437;-88
2023/07/29 07:32:11;;;;;;;2.43;2.33;;;22.00;95.90;;;;;;5051710;28;20430;-88
2023/07/29 07:34:36;;;;;;;2.60;2.40;;;22.00;95.80;;;;;;5051651;28;20519;-88
2023/07/29 07:37:04;;;;;;;2.67;2.57;;;22.00;95.80;;;;;;5000603;28;20191;-88
2023/07/29 07:39:31;;;;;;;2.97;2.77;;;22.00;95.90;;;;;;5025655;28;20196;-88
2023/07/29 07:41:57;;;;;;;2.23;2.13;;;22.00;95.80;;;;;;5037376;28;20438;-88
2023/07/29 07:44:26;;;;;;;2.67;2.37;;;22.00;95.90;;;;;;5052939;28;20410;-88
2023/07/29 07:46:54;;;;;;;2.70;2.50;;;22.00;95.80;;;;;;5054438;28;20403;-86
2023/07/29 07:49:24;;;;;;;2.83;2.63;;;22.00;95.80;;;;;;5053890;28;20827;-88
2023/07/29 07:51:50;;;;;;;2.10;2.00;;;22.00;95.80;;;;;;5019005;28;20557;-88
2023/07/29 07:54:19;;;;;;;2.80;2.60;;;22.00;95.80;;;;;;5003820;28;20525;-89
2023/07/29 07:56:44;;;;;;;2.63;2.43;;;22.00;95.70;;;;;;5030077;28;20510;-88
2023/07/29 07:59:10;;;;;;;2.80;2.50;;;22.00;95.70;;;;;;5051814;28;20462;-88
2023/07/29 08:01:40;;;;;;;2.70;2.50;;;22.00;95.70;;;;;;5068351;28;20175;-87
2023/07/29 08:04:06;;;;;;;2.57;2.37;;;22.00;95.70;;;;;;5018822;28;20430;-88
2023/07/29 08:06:35;;;;;;;2.70;2.50;;;22.00;95.60;;;;;;5035765;28;20409;-88
2023/07/29 08:09:01;;;;;;;2.60;2.40;;;22.00;95.70;;;;;;5038769;28;20456;-89
2023/07/29 08:11:29;;;;;;;2.53;2.33;;;22.00;95.70;;;;;;5022454;28;20418;-90
2023/07/29 08:13:55;;;;;;;2.77;2.57;;;22.00;95.60;;;;;;5036401;28;20794;-87
2023/07/29 08:16:21;;;;;;;1.90;1.80;;;22.00;95.70;;;;;;5013995;28;20505;-88
2023/07/29 08:18:47;;;;;;;2.23;2.13;;;22.00;95.70;;;;;;5038894;28;20210;-88
2023/07/29 08:21:13;;;;;;;2.40;2.20;;;22.00;95.60;;;;;;5056241;28;20533;-88
2023/07/29 08:23:39;;;;;;;2.40;2.30;;;22.10;95.60;;;;;;5038971;28;20864;-88
2023/07/29 08:26:09;;;;;;;2.80;2.50;;;22.10;95.70;;;;;;5038898;28;20546;-89
2023/07/29 08:28:42;;;;;;;2.50;2.30;;;22.10;95.60;;;;;;5006152;28;20430;-88
2023/07/29 08:31:08;;;;;;;2.60;2.40;;;22.10;95.60;;;;;;5064906;28;20459;-94
2023/07/29 08:33:34;;;;;;;2.43;2.30;;;22.10;95.50;;;;;;5004479;28;20557;-96
2023/07/29 08:36:01;;;;;;;2.40;2.20;;;22.10;95.50;;;;;;5021525;28;20553;-95
2023/07/29 08:38:33;;;;;;;2.47;2.27;;;22.10;95.50;;;;;;5020105;28;20528;-96
2023/07/29 08:41:39;;;;;;;2.27;2.10;;;22.10;95.50;;;;;;5020980;28;20410;-95
2023/07/29 08:47:17;;;;;;;2.40;2.20;;;22.10;95.60;;;;;;4939147;29;20427;-96
2023/07/29 08:49:46;;;;;;;2.53;2.33;;;22.10;95.60;;;;;;4941874;29;20450;-95
2023/07/29 08:52:13;;;;;;;2.43;2.23;;;22.20;95.60;;;;;;4925968;29;20422;-96
2023/07/29 08:54:42;;;;;;;2.77;2.40;;;22.20;95.50;;;;;;4942009;29;20546;-95
2023/07/29 08:57:09;;;;;;;2.37;2.27;;;22.20;95.60;;;;;;4926118;29;20481;-95
2023/07/29 08:59:37;;;;;;;2.77;2.57;;;22.20;95.60;;;;;;4945018;29;20483;-95
2023/07/29 09:02:03;;;;;;;2.70;2.50;;;22.20;95.60;;;;;;4951160;28;20742;-90
2023/07/29 09:04:29;;;;;;;4.70;2.60;;;22.20;95.60;;;;;;4947093;29;20491;-96
2023/07/29 09:07:01;;;;;;;2.20;2.00;;;22.20;95.50;;;;;;4942546;29;20455;-95
2023/07/29 09:09:37;;;;;;;2.47;2.27;;;22.30;95.60;;;;;;4957695;29;20520;-96
2023/07/29 09:12:07;;;;;;;2.30;2.20;;;22.30;95.50;;;;;;4941412;29;20746;-95
2023/07/29 09:14:33;;;;;;;3.00;2.30;;;22.30;95.40;;;;;;4925729;29;20742;-95
2023/07/29 09:17:00;;;;;;;2.40;2.20;;;22.30;95.30;;;;;;4925830;29;20443;-94
2023/07/29 09:19:27;;;;;;;2.17;2.07;;;22.30;95.30;;;;;;4967950;28;20489;-95
2023/07/29 09:25:16;;;;;;;3.83;2.50;;;22.40;95.30;;;;;;5039258;28;20765;-95
2023/07/29 09:31:43;;;;;;;2.60;2.50;;;22.40;95.10;;;;;;4989197;28;20447;-94
2023/07/29 09:34:18;;;;;;;2.97;2.77;;;22.40;95.10;;;;;;5002783;28;20428;-94
2023/07/29 09:36:44;;;;;;;2.30;2.20;;;22.40;95.10;;;;;;5018725;28;20538;-96
2023/07/29 09:39:43;;;;;;;3.20;3.00;;;22.40;95.10;;;;;;4998723;28;20476;-95
2023/07/29 09:42:20;;;;;;;2.50;2.37;;;22.50;95.10;;;;;;4984836;28;20710;-94
2023/07/29 09:44:50;;;;;;;2.53;2.43;;;22.50;95.10;;;;;;4987067;28;20428;-94
2023/07/29 09:47:48;;;;;;;2.20;2.00;;;22.40;95.00;;;;;;5019252;28;20785;-94
2023/07/29 09:50:31;;;;;;;2.60;2.50;;;22.50;95.10;;;;;;5005154;28;20428;-94
2023/07/29 10:01:23;;;;;;;2.90;2.70;;;22.50;95.10;;;;;;5039134;28;20439;-94
2023/07/29 10:04:01;;;;;;;2.70;2.43;;;22.50;95.10;;;;;;5022508;28;20421;-96
2023/07/29 10:06:35;;;;;;;2.20;2.10;;;22.50;95.10;;;;;;5009053;28;20426;-95
2023/07/29 10:09:20;;;;;;;2.33;2.23;;;22.50;95.20;;;;;;5015406;28;20740;-94
2023/07/29 10:11:55;;;;;;;2.70;2.30;;;22.50;95.20;;;;;;5057998;28;20395;-95
2023/07/29 10:14:23;;;;;;;2.60;2.30;;;22.50;95.20;;;;;;5026493;28;20734;-95
2023/07/29 10:21:08;;;;;;;2.70;2.50;;;22.50;95.20;;;;;;4962125;29;20466;-93
2023/07/29 10:23:45;;;;;;;2.73;2.53;;;22.50;95.30;;;;;;4938819;29;20546;-95
2023/07/29 10:26:18;;;;;;;2.73;2.53;;;22.60;95.40;;;;;;4976425;28;20513;-94
2023/07/29 10:29:26;;;;;;;2.97;2.77;;;22.60;95.40;;;;;;4930174;28;20478;-95
2023/07/29 10:32:05;;;;;;;2.67;2.57;;;22.60;95.30;;;;;;4876644;29;20457;-95
2023/07/29 10:34:36;;;;;;;2.80;2.60;;;22.70;95.30;;;;;;4868485;29;20461;-94
2023/07/29 10:37:04;;;;;;;2.73;2.53;;;22.70;95.20;;;;;;4883891;29;20421;-95
2023/07/29 10:39:57;;;;;;;2.80;2.60;;;22.70;95.20;;;;;;4882882;29;20579;-93
2023/07/29 10:42:28;;;;;;;2.50;2.30;;;22.70;95.20;;;;;;4891725;29;20464;-95
2023/07/29 10:44:55;;;;;;;2.60;2.40;;;22.70;95.20;;;;;;4905246;29;20463;-95
2023/07/29 10:47:27;;;;;;;2.70;2.50;;;22.70;95.10;;;;;;4891347;29;20432;-95
2023/07/29 10:50:01;;;;;;;2.70;2.50;;;22.80;95.10;;;;;;4872448;29;20557;-93
2023/07/29 10:52:36;;;;;;;2.30;2.20;;;22.80;95.00;;;;;;4955732;29;20552;-92
2023/07/29 10:55:29;;;;;;;3.30;2.90;;;22.80;95.00;;;;;;4939642;29;20431;-93
2023/07/29 10:58:19;;;;;;;3.00;2.80;;;22.80;94.90;;;;;;4924130;29;20546;-95
2023/07/29 11:00:45;;;;;;;2.30;2.20;;;22.90;94.90;;;;;;4923903;29;20429;-93
2023/07/29 11:03:14;;;;;;;2.50;2.40;;;22.90;94.90;;;;;;4923659;29;20459;-93
2023/07/29 11:05:44;;;;;;;2.50;2.40;;;22.90;94.90;;;;;;4939628;29;20459;-93
2023/07/29 11:08:18;;;;;;;2.80;2.60;;;22.90;94.90;;;;;;4951143;28;20778;-94
2023/07/29 11:10:56;;;;;;;2.93;2.73;;;22.90;94.90;;;;;;5001717;28;20759;-94
2023/07/29 11:13:22;;;;;;;2.83;2.63;;;23.00;95.00;;;;;;4977467;28;20472;-94
2023/07/29 11:15:50;;;;;;;2.70;2.50;;;23.00;95.00;;;;;;4961620;28;20461;-94
2023/07/29 11:18:17;;;;;;;6.60;2.70;;;23.00;94.90;;;;;;4945823;28;20475;-94
2023/07/29 11:20:45;;;;;;;2.60;2.40;;;23.00;94.80;;;;;;4945669;28;20540;-95
2023/07/29 11:23:14;;;;;;;2.60;2.50;;;23.00;94.80;;;;;;4979759;28;20434;-94
2023/07/29 11:25:43;;;;;;;2.97;2.80;;;23.00;94.70;;;;;;4996258;23;20625;-74
2023/07/29 11:28:09;;;;;;;2.77;2.57;;;23.10;94.70;;;;;;5034809;28;20542;-73
2023/07/29 11:30:40;;;;;;;4.23;2.67;;;23.10;94.70;;;;;;5068455;28;20433;-73
2023/07/29 11:33:11;;;;;;;3.00;2.80;;;23.10;94.60;;;;;;5047050;28;20471;-74
2023/07/29 11:35:38;;;;;;;3.20;3.00;;;23.10;94.50;;;;;;5013914;28;20488;-74
2023/07/29 11:38:05;;;;;;;2.23;2.13;;;23.10;94.40;;;;;;5036870;28;20470;-74
2023/07/29 11:40:35;;;;;;;3.00;2.80;;;23.10;94.40;;;;;;5067963;28;20436;-74
2023/07/29 11:43:01;;;;;;;3.20;3.00;;;23.10;94.40;;;;;;5035029;28;20425;-74
2023/07/29 11:45:29;;;;;;;3.03;2.83;;;23.20;94.50;;;;;;5054265;28;20457;-74
2023/07/29 11:47:58;;;;;;;2.80;2.60;;;23.20;94.40;;;;;;5066310;28;20421;-74
2023/07/29 11:50:24;;;;;;;2.80;2.60;;;23.20;94.50;;;;;;5044346;28;20214;-74
2023/07/29 11:52:50;;;;;;;2.60;2.40;;;23.20;94.40;;;;;;5024665;28;20446;-74
2023/07/29 11:55:19;;;;;;;3.20;3.00;;;23.20;94.40;;;;;;5064103;28;20322;-74
2023/07/29 11:57:52;;;;;;;3.00;2.80;;;23.30;94.30;;;;;;5055501;28;20421;-74
2023/07/29 12:00:18;;;;;;;3.00;2.80;;;23.30;94.20;;;;;;5050562;28;20485;-73
2023/07/29 12:02:47;;;;;;;3.03;2.83;;;23.30;94.10;;;;;;5013436;28;20430;-74
2023/07/29 12:05:15;;;;;;;3.20;3.00;;;23.30;94.10;;;;;;4998188;28;20426;-73
2023/07/29 12:07:43;;;;;;;3.00;2.73;;;23.30;94.00;;;;;;5031717;28;20408;-73
2023/07/29 12:10:10;;;;;;;3.00;2.80;;;23.40;94.10;;;;;;4981197;28;20474;-74
2023/07/29 12:12:49;;;;;;;2.80;2.60;;;23.40;94.10;;;;;;5066111;28;20430;-74
2023/07/29 12:15:29;;;;;;;2.80;2.60;;;23.40;94.20;;;;;;5065505;28;20789;-74
2023/07/29 12:17:59;;;;;;;3.20;2.93;;;23.40;94.30;;;;;;5070977;28;20441;-74
2023/07/29 12:20:29;;;;;;;2.83;2.57;;;23.40;94.40;;;;;;5053572;28;20799;-74
2023/07/29 12:23:02;;;;;;;2.70;2.50;;;23.50;94.30;;;;;;5037292;28;20504;-75
2023/07/29 12:25:29;;;;;;;2.53;2.43;;;23.50;94.30;;;;;;5041108;28;20456;-75
2023/07/29 12:28:08;;;;;;;2.70;2.50;;;23.50;94.30;;;;;;5033544;28;20482;-76
2023/07/29 12:30:43;;;;;;;2.60;2.50;;;23.50;94.20;;;;;;5040914;28;20540;-74
2023/07/29 12:33:30;;;;;;;2.70;2.50;;;23.60;94.20;;;;;;5065780;28;20506;-74
2023/07/29 12:35:56;;;;;;;2.60;2.40;;;23.60;94.20;;;;;;5031658;28;20518;-74
2023/07/29 12:38:26;;;;;;;2.70;2.50;;;23.60;94.10;;;;;;5027037;28;20523;-75
2023/07/29 12:40:55;;;;;;;6.97;2.87;;;23.60;94.00;;;;;;5037431;28;21232;-77
2023/07/29 12:43:24;;;;;;;2.70;2.57;;;23.70;94.10;;;;;;5070464;28;20740;-74
2023/07/29 12:45:52;;;;;;;2.70;2.50;;;23.70;94.00;;;;;;5036944;28;20467;-75
2023/07/29 12:48:18;;;;;;;3.07;2.87;;;23.70;94.00;;;;;;5012410;28;20604;-74
2023/07/29 12:50:44;;;;;;;2.90;2.70;;;23.70;93.90;;;;;;5054487;28;20446;-73
2023/07/29 12:53:10;;;;;;;2.93;2.73;;;23.80;93.90;;;;;;5063195;28;20452;-74
2023/07/29 12:55:36;;;;;;;3.47;3.17;;;23.80;93.90;;;;;;5047609;28;20446;-74
2023/07/29 12:58:05;;;;;;;3.23;3.03;;;23.80;93.80;;;;;;5065047;28;20478;-74
2023/07/29 13:00:33;;;;;;;3.77;2.80;;;23.80;93.70;;;;;;5062496;28;20453;-75
2023/07/29 13:03:07;;;;;;;3.13;2.90;;;23.80;93.70;;;;;;5051495;28;20418;-74
2023/07/29 13:05:44;;;;;;;3.30;3.00;;;23.90;93.70;;;;;;5062214;28;20441;-73
2023/07/29 13:08:10;;;;;;;2.80;2.60;;;23.90;93.50;;;;;;5015180;28;20450;-74
2023/07/29 13:10:38;;;;;;;2.80;2.60;;;23.90;93.40;;;;;;5015425;28;20820;-74
2023/07/29 13:13:09;;;;;;;3.20;2.97;;;24.00;93.40;;;;;;5044874;28;20437;-74
2023/07/29 13:15:37;;;;;;;2.83;2.63;;;24.00;93.30;;;;;;5025539;28;20426;-73
2023/07/29 13:18:08;;;;;;;3.07;2.87;;;24.00;93.20;;;;;;5022896;28;20947;-74
2023/07/29 13:20:37;;;;;;;3.00;2.70;;;24.00;93.20;;;;;;5046894;28;20458;-74